createdAt,value
2023-05-11T00:01:34.910Z,98149.65
2023-05-11T00:04:03.133Z,98151.48
2023-05-11T00:06:32.362Z,98155.24
2023-05-11T00:09:00.508Z,98153.45
2023-05-11T00:11:28.867Z,98157.23
2023-05-11T00:13:57.155Z,98158.01
2023-05-11T00:16:25.306Z,98159.83
2023-05-11T00:18:53.536Z,98161.03
2023-05-11T00:21:23.028Z,98155.44
2023-05-11T00:23:51.145Z,98154.88
2023-05-11T00:26:19.354Z,98156.41
2023-05-11T00:28:48.853Z,98152.34
2023-05-11T00:31:16.970Z,98147.69
2023-05-11T00:33:45.607Z,98148.08
2023-05-11T00:36:13.891Z,98146.14
2023-05-11T00:38:41.957Z,98149.43
2023-05-11T00:41:10.050Z,98153.83
2023-05-11T00:43:38.144Z,98153.60
2023-05-11T00:46:07.381Z,98152.55
2023-05-11T00:48:35.441Z,98148.84
2023-05-11T00:51:04.559Z,98151.10
2023-05-11T00:53:32.735Z,98152.92
2023-05-11T00:56:01.618Z,98151.95
2023-05-11T00:58:31.540Z,98156.54
2023-05-11T01:00:59.966Z,98158.52
2023-05-11T01:03:28.666Z,98159.38
2023-05-11T01:06:11.152Z,98161.63
2023-05-11T01:08:39.480Z,98163.06
2023-05-11T01:11:15.638Z,98162.88
2023-05-11T01:13:48.697Z,98162.05
2023-05-11T01:16:22.274Z,98164.80
2023-05-11T01:19:31.130Z,98162.15
2023-05-11T01:22:03.541Z,98159.73
2023-05-11T01:24:31.805Z,98164.13
2023-05-11T01:27:00.875Z,98163.31
2023-05-11T01:30:19.810Z,98164.45
2023-05-11T01:32:48.372Z,98166.95
2023-05-11T01:35:22.312Z,98166.89
2023-05-11T01:37:54.685Z,98169.41
2023-05-11T01:40:28.160Z,98169.26
2023-05-11T01:43:08.280Z,98163.70
2023-05-11T01:45:41.225Z,98165.36
2023-05-11T01:48:13.964Z,98164.55
2023-05-11T01:50:43.507Z,98167.89
2023-05-11T01:53:14.118Z,98167.26
2023-05-11T01:55:43.273Z,98170.61
2023-05-11T01:58:16.497Z,98173.45
2023-05-11T02:00:46.783Z,98172.55
2023-05-11T02:03:16.535Z,98170.80
2023-05-11T02:05:47.609Z,98168.58
2023-05-11T02:08:18.329Z,98170.16
2023-05-11T02:10:48.614Z,98174.08
2023-05-11T02:13:18.538Z,98173.56
2023-05-11T02:15:53.182Z,98173.77
2023-05-11T02:18:21.930Z,98174.29
2023-05-11T02:20:59.726Z,98172.20
2023-05-11T02:23:28.596Z,98167.40
2023-05-11T02:25:57.905Z,98167.81
2023-05-11T02:28:26.173Z,98170.57
2023-05-11T02:30:56.892Z,98168.52
2023-05-11T02:33:31.796Z,98170.20
2023-05-11T02:36:02.337Z,98172.44
2023-05-11T02:38:35.027Z,98177.16
2023-05-11T02:41:07.667Z,98174.65
2023-05-11T02:43:40.838Z,98170.92
2023-05-11T02:46:17.455Z,98175.77
2023-05-11T02:48:52.414Z,98177.15
2023-05-11T02:51:27.039Z,98179.06
2023-05-11T02:53:58.412Z,98176.91
2023-05-11T02:56:27.758Z,98179.01
2023-05-11T02:58:56.305Z,98181.40
2023-05-11T03:01:28.782Z,98178.96
2023-05-11T03:03:58.667Z,98176.79
2023-05-11T03:06:28.215Z,98177.85
2023-05-11T03:08:56.442Z,98181.05
2023-05-11T03:11:26.041Z,98186.48
2023-05-11T03:13:54.415Z,98187.92
2023-05-11T03:16:23.945Z,98189.15
2023-05-11T03:18:52.929Z,98184.91
2023-05-11T03:21:23.401Z,98180.65
2023-05-11T03:23:52.945Z,98177.85
2023-05-11T03:26:22.184Z,98179.14
2023-05-11T03:28:51.036Z,98180.73
2023-05-11T03:31:19.463Z,98180.96
2023-05-11T03:33:47.761Z,98176.66
2023-05-11T03:36:16.683Z,98179.05
2023-05-11T03:38:48.108Z,98179.36
2023-05-11T03:41:17.890Z,98179.59
2023-05-11T03:43:51.859Z,98179.73
2023-05-11T03:46:22.790Z,98177.36
2023-05-11T03:48:52.705Z,98178.47
2023-05-11T03:51:23.740Z,98178.20
2023-05-11T03:53:51.910Z,98184.53
2023-05-11T03:56:21.957Z,98188.13
2023-05-11T03:58:50.716Z,98187.96
2023-05-11T04:01:19.503Z,98185.31
2023-05-11T04:03:52.941Z,98185.16
2023-05-11T04:06:21.786Z,98186.36
2023-05-11T04:08:57.224Z,98189.77
2023-05-11T04:11:26.956Z,98186.65
2023-05-11T04:13:56.450Z,98187.92
2023-05-11T04:16:24.636Z,98192.20
2023-05-11T04:18:52.712Z,98192.82
2023-05-11T04:21:22.503Z,98191.39
2023-05-11T04:23:50.661Z,98189.47
2023-05-11T04:26:19.451Z,98187.86
2023-05-11T04:28:47.474Z,98188.40
2023-05-11T04:31:16.445Z,98194.02
2023-05-11T04:33:45.372Z,98192.98
2023-05-11T04:36:13.856Z,98192.84
2023-05-11T04:38:42.326Z,98191.79
2023-05-11T04:41:11.564Z,98189.14
2023-05-11T04:43:41.068Z,98191.48
2023-05-11T04:46:11.412Z,98195.56
2023-05-11T04:48:40.180Z,98194.41
2023-05-11T04:51:08.557Z,98190.83
2023-05-11T04:53:42.403Z,98189.54
2023-05-11T04:56:12.070Z,98191.54
2023-05-11T04:58:40.402Z,98191.43
2023-05-11T05:01:08.838Z,98191.53
2023-05-11T05:03:37.171Z,98196.13
2023-05-11T05:06:05.386Z,98193.58
2023-05-11T05:08:33.730Z,98194.08
2023-05-11T05:11:01.949Z,98196.52
2023-05-11T05:13:31.167Z,98201.58
2023-05-11T05:15:59.423Z,98201.89
2023-05-11T05:18:27.941Z,98208.08
2023-05-11T05:20:56.366Z,98214.93
2023-05-11T05:23:26.621Z,98212.63
2023-05-11T05:25:54.787Z,98209.77
2023-05-11T05:28:23.303Z,98208.21
2023-05-11T05:30:51.767Z,98209.26
2023-05-11T05:33:20.925Z,98210.12
2023-05-11T05:35:49.305Z,98212.04
2023-05-11T05:38:17.801Z,98211.90
2023-05-11T05:40:46.667Z,98210.55
2023-05-11T05:43:16.131Z,98207.31
2023-05-11T05:45:44.664Z,98204.95
2023-05-11T05:48:13.330Z,98205.79
2023-05-11T05:50:41.422Z,98210.66
2023-05-11T05:53:09.901Z,98211.12
2023-05-11T05:55:38.411Z,98204.77
2023-05-11T05:58:06.863Z,98210.23
2023-05-11T06:00:36.459Z,98211.88
2023-05-11T06:03:06.428Z,98209.55
2023-05-11T06:05:34.752Z,98211.07
2023-05-11T06:08:10.709Z,98208.02
2023-05-11T06:10:40.014Z,98210.94
2023-05-11T06:13:09.081Z,98207.55
2023-05-11T06:15:37.462Z,98206.33
2023-05-11T06:18:11.513Z,98207.16
2023-05-11T06:20:42.475Z,98203.73
2023-05-11T06:23:10.883Z,98200.27
2023-05-11T06:25:40.709Z,98196.86
2023-05-11T06:28:09.163Z,98189.09
2023-05-11T06:30:38.083Z,98192.66
2023-05-11T06:33:07.891Z,98193.07
2023-05-11T06:35:37.726Z,98197.77
2023-05-11T06:38:07.121Z,98190.91
2023-05-11T06:40:36.634Z,98196.77
2023-05-11T06:43:04.725Z,98191.98
2023-05-11T06:45:47.411Z,98189.65
2023-05-11T06:48:16.421Z,98188.04
2023-05-11T06:50:44.780Z,98186.81
2023-05-11T06:53:17.986Z,98182.80
2023-05-11T06:55:46.654Z,98188.91
2023-05-11T06:58:14.955Z,98191.00
2023-05-11T07:00:43.262Z,98192.83
2023-05-11T07:03:11.655Z,98189.89
2023-05-11T07:05:40.379Z,98179.48
2023-05-11T07:08:08.467Z,98181.52
2023-05-11T07:10:36.822Z,98182.95
2023-05-11T07:13:05.647Z,98177.16
2023-05-11T07:15:34.104Z,98174.44
2023-05-11T07:18:02.326Z,98177.85
2023-05-11T07:20:30.439Z,98174.80
2023-05-11T07:22:59.476Z,98171.54
2023-05-11T07:25:28.268Z,98177.34
2023-05-11T07:27:56.707Z,98170.67
2023-05-11T07:30:25.513Z,98162.65
2023-05-11T07:32:54.214Z,98177.08
2023-05-11T07:35:24.148Z,98168.60
2023-05-11T07:37:52.563Z,98174.27
2023-05-11T07:40:21.124Z,98178.27
2023-05-11T07:42:49.420Z,98178.24
2023-05-11T07:45:17.668Z,98176.95
2023-05-11T07:47:46.111Z,98176.55
2023-05-11T07:50:14.661Z,98179.67
2023-05-11T07:52:42.832Z,98167.80
2023-05-11T07:55:11.160Z,98177.34
2023-05-11T07:57:39.245Z,98177.98
2023-05-11T08:00:08.494Z,98170.11
2023-05-11T08:02:42.442Z,98169.66
2023-05-11T08:05:11.650Z,98163.44
2023-05-11T08:07:41.534Z,98160.01
2023-05-11T08:10:10.403Z,98157.71
2023-05-11T08:12:39.261Z,98152.73
2023-05-11T08:15:08.105Z,98149.86
2023-05-11T08:17:36.780Z,98170.16
2023-05-11T08:20:06.828Z,98165.04
2023-05-11T08:22:35.517Z,98161.70
2023-05-11T08:25:04.825Z,98169.42
2023-05-11T08:27:32.932Z,98165.27
2023-05-11T08:30:03.590Z,98165.73
2023-05-11T08:32:34.679Z,98161.73
2023-05-11T08:35:07.348Z,98161.02
2023-05-11T08:37:35.583Z,98155.41
2023-05-11T08:40:04.561Z,98161.44
2023-05-11T08:42:35.402Z,98149.52
2023-05-11T08:45:04.894Z,98157.20
2023-05-11T08:47:34.104Z,98147.55
2023-05-11T08:50:02.768Z,98140.93
2023-05-11T08:52:31.190Z,98141.30
2023-05-11T08:54:59.423Z,98132.92
2023-05-11T08:57:32.093Z,98128.92
2023-05-11T09:00:02.529Z,98131.42
2023-05-11T09:02:31.085Z,98122.47
2023-05-11T09:04:59.740Z,98113.02
2023-05-11T09:07:28.592Z,98117.66
2023-05-11T09:09:56.926Z,98119.44
2023-05-11T09:12:28.532Z,98104.05
2023-05-11T09:15:02.064Z,98104.81
2023-05-11T09:17:30.896Z,98115.88
2023-05-11T09:20:00.771Z,98123.28
2023-05-11T09:22:31.003Z,98114.70
2023-05-11T09:25:02.359Z,98109.72
2023-05-11T09:27:30.564Z,98107.40
2023-05-11T09:32:57.871Z,98104.58
2023-05-11T09:35:31.491Z,98104.08
2023-05-11T09:38:05.043Z,98112.66
2023-05-11T09:40:37.640Z,98106.50
2023-05-11T09:43:21.658Z,98104.96
2023-05-11T09:45:51.742Z,98097.91
2023-05-11T09:48:19.968Z,98109.09
2023-05-11T09:50:49.516Z,98099.55
2023-05-11T09:53:18.473Z,98083.25
2023-05-11T09:55:55.926Z,98093.43
2023-05-11T09:58:24.114Z,98091.81
2023-05-11T10:00:54.032Z,98093.62
2023-05-11T10:03:22.667Z,98092.91
2023-05-11T10:05:59.198Z,98103.20
2023-05-11T10:08:34.303Z,98102.47
2023-05-11T10:11:03.940Z,98075.73
2023-05-11T10:13:34.012Z,98063.43
2023-05-11T10:16:07.218Z,98066.15
2023-05-11T10:18:36.619Z,98062.41
2023-05-11T10:21:05.348Z,98074.48
2023-05-11T10:23:33.939Z,98072.18
2023-05-11T10:26:05.257Z,98059.23
2023-05-11T10:28:34.046Z,98052.42
2023-05-11T10:31:05.368Z,98062.86
2023-05-11T10:33:34.729Z,98064.27
2023-05-11T10:36:06.386Z,98056.77
2023-05-11T10:38:34.798Z,98062.66
2023-05-11T10:41:16.535Z,98062.48
2023-05-11T10:44:07.792Z,98057.88
2023-05-11T10:46:51.020Z,98046.70
2023-05-11T10:49:46.505Z,98047.31
2023-05-11T10:52:47.533Z,98042.08
2023-05-11T10:55:26.278Z,98037.34
2023-05-11T10:58:10.682Z,98034.61
2023-05-11T11:01:00.725Z,98033.98
2023-05-11T11:03:29.118Z,98032.27
2023-05-11T11:05:59.988Z,98041.55
2023-05-11T11:08:30.036Z,98049.04
2023-05-11T11:10:59.035Z,98049.00
2023-05-11T11:13:27.174Z,98039.09
2023-05-11T11:15:58.144Z,98045.98
2023-05-11T11:18:30.885Z,98052.36
2023-05-11T11:20:59.647Z,98042.85
2023-05-11T11:23:40.223Z,98048.98
2023-05-11T11:26:10.880Z,98038.33
2023-05-11T11:28:57.148Z,98039.05
2023-05-11T11:31:27.755Z,98040.65
2023-05-11T11:33:59.209Z,98035.91
2023-05-11T11:36:55.264Z,98041.30
2023-05-11T11:39:26.007Z,98039.95
2023-05-11T11:42:08.327Z,98034.95
2023-05-11T11:44:37.973Z,98032.37
2023-05-11T11:47:20.333Z,98043.34
2023-05-11T11:49:51.510Z,98044.50
2023-05-11T11:52:28.895Z,98042.33
2023-05-11T11:55:01.381Z,98042.30
2023-05-11T11:57:35.779Z,98032.10
2023-05-11T12:00:11.988Z,98041.33
2023-05-11T12:02:42.660Z,98027.06
2023-05-11T12:05:19.255Z,98022.78
2023-05-11T12:07:52.644Z,98024.61
2023-05-11T12:10:22.798Z,98012.27
2023-05-11T12:12:55.185Z,98026.58
2023-05-11T12:15:32.410Z,98013.11
2023-05-11T12:18:03.044Z,98017.30
2023-05-11T12:20:32.839Z,98016.05
2023-05-11T12:23:01.741Z,98000.89
2023-05-11T12:25:29.829Z,98002.80
2023-05-11T12:28:02.395Z,97993.86
2023-05-11T12:30:32.703Z,98003.73
2023-05-11T12:33:04.302Z,98004.49
2023-05-11T12:35:34.437Z,98006.23
2023-05-11T12:38:02.875Z,98001.00
2023-05-11T12:40:32.047Z,97989.89
2023-05-11T12:43:01.117Z,98003.86
2023-05-11T12:45:29.957Z,97996.20
2023-05-11T12:47:59.681Z,98003.43
2023-05-11T12:50:27.965Z,97997.98
2023-05-11T12:53:13.192Z,97998.35
2023-05-11T12:55:42.085Z,97987.09
2023-05-11T12:58:16.132Z,97990.31
2023-05-11T13:00:57.205Z,97978.51
2023-05-11T13:03:31.157Z,97974.25
2023-05-11T13:06:09.533Z,97978.42
2023-05-11T13:08:46.603Z,97968.41
2023-05-11T13:11:28.789Z,97969.35
2023-05-11T13:13:57.238Z,97976.19
2023-05-11T13:16:27.148Z,97969.89
2023-05-11T13:18:59.951Z,97960.14
2023-05-11T13:21:29.991Z,97955.77
2023-05-11T13:23:58.349Z,97970.38
2023-05-11T13:26:30.818Z,97969.11
2023-05-11T13:29:10.191Z,97964.98
2023-05-11T13:31:49.732Z,97958.56
2023-05-11T13:34:18.454Z,97952.03
2023-05-11T13:36:47.427Z,97950.87
2023-05-11T13:39:15.375Z,97959.42
2023-05-11T13:41:44.132Z,97954.05
2023-05-11T13:44:12.506Z,97955.36
2023-05-11T13:46:41.057Z,97957.44
2023-05-11T13:49:09.281Z,97960.04
2023-05-11T13:51:37.543Z,97955.70
2023-05-11T13:54:05.717Z,97957.94
2023-05-11T13:56:33.783Z,97953.79
2023-05-11T13:59:01.883Z,97953.08
2023-05-11T14:01:30.009Z,97952.80
2023-05-11T14:03:58.116Z,97959.46
2023-05-11T14:06:26.484Z,97955.47
2023-05-11T14:08:55.388Z,97957.97
2023-05-11T14:11:23.676Z,97964.91
2023-05-11T14:13:51.919Z,97960.50
2023-05-11T14:16:20.714Z,97947.80
2023-05-11T14:18:50.901Z,97947.31
2023-05-11T14:21:19.073Z,97944.80
2023-05-11T14:24:01.993Z,97943.74
2023-05-11T14:26:35.422Z,97941.17
2023-05-11T14:29:03.591Z,97943.47
2023-05-11T14:31:32.401Z,97947.96
2023-05-11T14:34:00.868Z,97952.34
2023-05-11T14:36:29.140Z,97950.41
2023-05-11T14:38:57.520Z,97952.39
2023-05-11T14:41:25.995Z,97950.68
2023-05-11T14:43:54.226Z,97951.59
2023-05-11T14:46:25.134Z,97948.89
2023-05-11T14:48:55.078Z,97955.28
2023-05-11T14:51:23.406Z,97955.73
2023-05-11T14:53:52.557Z,97965.30
2023-05-11T14:56:22.410Z,97967.37
2023-05-11T14:58:50.678Z,97954.00
2023-05-11T15:01:18.915Z,97954.98
2023-05-11T15:03:47.235Z,97946.56
2023-05-11T15:06:21.237Z,97953.11
2023-05-11T15:08:50.439Z,97963.36
2023-05-11T15:11:19.024Z,97953.21
2023-05-11T15:13:50.171Z,97955.38
2023-05-11T15:16:18.349Z,97949.30
2023-05-11T15:18:46.588Z,97950.63
2023-05-11T15:21:15.003Z,97947.75
2023-05-11T15:23:43.115Z,97958.64
2023-05-11T15:26:11.453Z,97949.39
2023-05-11T15:28:39.761Z,97951.20
2023-05-11T15:31:07.887Z,97948.42
2023-05-11T15:33:36.201Z,97948.89
2023-05-11T15:36:11.561Z,97943.91
2023-05-11T15:38:41.161Z,97950.75
2023-05-11T15:41:10.052Z,97950.08
2023-05-11T15:43:38.383Z,97946.66
2023-05-11T15:46:07.575Z,97949.23
2023-05-11T15:48:36.381Z,97943.79
2023-05-11T15:51:04.584Z,97948.42
2023-05-11T15:53:32.736Z,97948.73
2023-05-11T15:56:00.787Z,97948.52
2023-05-11T15:58:29.931Z,97952.58
2023-05-11T16:00:58.751Z,97941.40
2023-05-11T16:03:27.119Z,97939.27
2023-05-11T16:05:55.627Z,97935.14
2023-05-11T16:08:23.773Z,97932.64
2023-05-11T16:10:52.085Z,97944.23
2023-05-11T16:13:20.349Z,97949.35
2023-05-11T16:15:48.387Z,97948.38
2023-05-11T16:18:16.745Z,97949.73
2023-05-11T16:20:46.232Z,97951.27
2023-05-11T16:23:14.486Z,97961.91
2023-05-11T16:25:42.660Z,97960.02
2023-05-11T16:28:11.032Z,97963.39
2023-05-11T16:30:39.512Z,97957.30
2023-05-11T16:33:07.692Z,97955.48
2023-05-11T16:35:35.959Z,97959.24
2023-05-11T16:38:05.465Z,97962.96
2023-05-11T16:40:33.555Z,97967.47
2023-05-11T16:43:01.738Z,97963.84
2023-05-11T16:45:29.787Z,97962.80
2023-05-11T16:47:58.122Z,97969.73
2023-05-11T16:50:26.534Z,97973.30
2023-05-11T16:52:55.153Z,97971.91
2023-05-11T16:55:23.614Z,97979.05
2023-05-11T16:57:51.954Z,97972.45
2023-05-11T17:00:20.768Z,97975.23
2023-05-11T17:02:49.467Z,97980.20
2023-05-11T17:05:18.346Z,97980.98
2023-05-11T17:07:46.947Z,97987.29
2023-05-11T17:10:15.613Z,97979.04
2023-05-11T17:12:43.706Z,97978.04
2023-05-11T17:15:11.961Z,97987.66
2023-05-11T17:17:40.151Z,97989.04
2023-05-11T17:20:10.292Z,97986.27
2023-05-11T17:22:38.692Z,97988.60
2023-05-11T17:25:07.414Z,97994.39
2023-05-11T17:27:37.361Z,98003.42
2023-05-11T17:30:07.067Z,97997.61
2023-05-11T17:32:36.860Z,98000.09
2023-05-11T17:35:06.066Z,98003.77
2023-05-11T17:37:34.427Z,98001.88
2023-05-11T17:40:03.623Z,98007.88
2023-05-11T17:42:31.904Z,98007.13
2023-05-11T17:44:59.986Z,98009.10
2023-05-11T17:47:28.118Z,98008.02
2023-05-11T17:49:56.622Z,98010.30
2023-05-11T17:52:25.920Z,98010.56
2023-05-11T17:54:53.994Z,98008.07
2023-05-11T17:57:23.802Z,98012.30
2023-05-11T17:59:52.186Z,98014.72
2023-05-11T18:02:20.394Z,98017.02
2023-05-11T18:04:48.553Z,98022.83
2023-05-11T18:07:16.727Z,98024.25
2023-05-11T18:09:44.724Z,98029.98
2023-05-11T18:12:12.937Z,98037.55
2023-05-11T18:14:41.443Z,98039.34
2023-05-11T18:17:09.935Z,98038.30
2023-05-11T18:19:38.512Z,98037.34
2023-05-11T18:22:06.980Z,98042.08
2023-05-11T18:24:35.036Z,98043.61
2023-05-11T18:27:03.054Z,98042.52
2023-05-11T18:29:31.116Z,98050.66
2023-05-11T18:31:59.503Z,98056.52
2023-05-11T18:34:27.939Z,98063.02
2023-05-11T18:36:56.318Z,98055.62
2023-05-11T18:39:24.490Z,98061.69
2023-05-11T18:41:52.732Z,98067.45
2023-05-11T18:44:20.736Z,98071.49
2023-05-11T18:46:49.422Z,98071.09
2023-05-11T18:49:17.694Z,98078.63
2023-05-11T18:51:46.931Z,98080.18
2023-05-11T18:54:14.962Z,98082.45
2023-05-11T18:56:43.093Z,98086.60
2023-05-11T18:59:11.411Z,98090.67
2023-05-11T19:01:47.652Z,98093.70
2023-05-11T19:04:19.954Z,98097.03
2023-05-11T19:06:48.956Z,98104.17
2023-05-11T19:09:17.728Z,98105.78
2023-05-11T19:11:45.973Z,98108.60
2023-05-11T19:14:15.807Z,98116.55
2023-05-11T19:16:44.121Z,98107.98
2023-05-11T19:19:12.878Z,98111.26
2023-05-11T19:21:42.592Z,98116.10
2023-05-11T19:24:11.481Z,98114.71
2023-05-11T19:26:39.959Z,98112.59
2023-05-11T19:29:09.486Z,98109.59
2023-05-11T19:31:37.746Z,98115.03
2023-05-11T19:34:06.978Z,98113.38
2023-05-11T19:36:35.510Z,98112.81
2023-05-11T19:39:04.597Z,98111.11
2023-05-11T19:41:33.294Z,98115.73
2023-05-11T19:44:02.766Z,98117.75
2023-05-11T19:46:31.230Z,98119.07
2023-05-11T19:48:59.753Z,98117.55
2023-05-11T19:51:28.123Z,98112.44
2023-05-11T19:53:56.431Z,98116.41
2023-05-11T19:56:24.669Z,98118.43
2023-05-11T19:58:52.784Z,98122.67
2023-05-11T20:01:21.028Z,98123.83
2023-05-11T20:03:49.396Z,98127.39
2023-05-11T20:06:17.672Z,98125.52
2023-05-11T20:08:48.000Z,98124.17
2023-05-11T20:11:18.126Z,98122.08
2023-05-11T20:13:47.925Z,98118.02
2023-05-11T20:16:16.378Z,98125.17
2023-05-11T20:18:44.674Z,98126.36
2023-05-11T20:21:13.310Z,98125.20
2023-05-11T20:23:41.431Z,98125.72
2023-05-11T20:26:10.302Z,98128.95
2023-05-11T20:28:39.734Z,98129.48
2023-05-11T20:31:09.647Z,98132.95
2023-05-11T20:36:09.499Z,98128.33
2023-05-11T20:38:37.648Z,98129.42
2023-05-11T20:41:05.853Z,98132.41
2023-05-11T20:43:34.170Z,98131.14
2023-05-11T20:46:05.742Z,98136.15
2023-05-11T20:48:40.324Z,98136.26
2023-05-11T20:51:09.057Z,98141.81
2023-05-11T20:53:37.130Z,98138.95
2023-05-11T20:56:05.224Z,98140.79
2023-05-11T20:58:33.300Z,98140.77
2023-05-11T21:01:01.855Z,98141.79
2023-05-11T21:03:30.520Z,98143.42
2023-05-11T21:05:58.823Z,98145.13
2023-05-11T21:08:26.888Z,98146.70
2023-05-11T21:10:55.656Z,98142.83
2023-05-11T21:13:23.950Z,98146.16
2023-05-11T21:15:52.225Z,98143.98
2023-05-11T21:18:20.396Z,98143.12
2023-05-11T21:20:48.465Z,98147.56
2023-05-11T21:23:16.640Z,98145.68
2023-05-11T21:25:44.712Z,98143.89
2023-05-11T21:28:12.779Z,98145.02
2023-05-11T21:30:41.252Z,98147.13
2023-05-11T21:33:09.348Z,98151.55
2023-05-11T21:35:38.120Z,98149.20
2023-05-11T21:38:06.282Z,98150.58
2023-05-11T21:40:34.376Z,98157.55
2023-05-11T21:43:02.405Z,98154.91
2023-05-11T21:45:30.607Z,98155.40
2023-05-11T21:47:59.714Z,98159.55
2023-05-11T21:50:27.873Z,98164.31
2023-05-11T21:52:55.961Z,98164.77
2023-05-11T21:55:24.308Z,98170.68
2023-05-11T21:57:52.907Z,98170.65
2023-05-11T22:00:22.619Z,98170.80
2023-05-11T22:02:51.297Z,98170.10
2023-05-11T22:05:19.977Z,98170.72
2023-05-11T22:07:47.983Z,98173.80
2023-05-11T22:10:16.397Z,98178.13
2023-05-11T22:12:44.829Z,98176.77
2023-05-11T22:15:12.919Z,98179.70
2023-05-11T22:17:41.126Z,98178.42
2023-05-11T22:20:12.824Z,98176.98
2023-05-11T22:22:40.771Z,98176.43
2023-05-11T22:25:09.688Z,98180.27
2023-05-11T22:27:37.854Z,98178.48
2023-05-11T22:30:07.577Z,98178.00
2023-05-11T22:32:36.288Z,98174.77
2023-05-11T22:35:05.263Z,98176.71
2023-05-11T22:37:33.680Z,98179.02
2023-05-11T22:40:02.189Z,98179.67
2023-05-11T22:42:30.924Z,98177.39
2023-05-11T22:44:59.135Z,98181.04
2023-05-11T22:47:28.023Z,98178.77
2023-05-11T22:49:56.437Z,98181.81
2023-05-11T22:52:24.657Z,98175.73
2023-05-11T22:54:55.184Z,98175.55
2023-05-11T22:57:24.195Z,98171.60
2023-05-11T22:59:52.343Z,98171.14
2023-05-11T23:02:21.200Z,98168.04
2023-05-11T23:04:53.236Z,98174.44
2023-05-11T23:07:21.405Z,98168.86
2023-05-11T23:09:52.584Z,98168.46
2023-05-11T23:12:20.723Z,98166.92
2023-05-11T23:14:49.826Z,98167.42
2023-05-11T23:17:18.219Z,98169.75
2023-05-11T23:19:46.574Z,98170.64
2023-05-11T23:22:15.366Z,98169.69
2023-05-11T23:24:43.364Z,98167.05
2023-05-11T23:27:11.461Z,98169.86
2023-05-11T23:29:39.653Z,98169.23
2023-05-11T23:32:07.819Z,98170.64
2023-05-11T23:34:35.887Z,98171.28
2023-05-11T23:37:04.814Z,98170.95
2023-05-11T23:39:33.493Z,98170.27
2023-05-11T23:42:01.773Z,98163.86
2023-05-11T23:44:32.176Z,98166.37
2023-05-11T23:47:00.552Z,98164.05
2023-05-11T23:49:28.732Z,98162.67
2023-05-11T23:51:57.232Z,98160.72
2023-05-11T23:54:25.400Z,98158.95
2023-05-11T23:56:53.683Z,98157.32
2023-05-11T23:59:21.950Z,98160.06
